createdAt,value
2018-09-10T00:01:53.849Z,3.77
2018-09-10T00:04:22.599Z,3.67
2018-09-10T00:06:51.426Z,3.53
2018-09-10T00:09:20.193Z,3.90
2018-09-10T00:11:49.002Z,3.40
2018-09-10T00:14:17.786Z,3.47
2018-09-10T00:16:46.534Z,3.57
2018-09-10T00:19:15.298Z,3.27
2018-09-10T00:21:44.066Z,3.70
2018-09-10T00:24:12.841Z,3.73
2018-09-10T00:26:41.608Z,3.00
2018-09-10T00:29:10.373Z,3.13
2018-09-10T00:31:39.188Z,3.57
2018-09-10T00:34:07.994Z,3.23
2018-09-10T00:36:36.782Z,3.10
2018-09-10T00:39:09.262Z,2.93
2018-09-10T00:41:38.334Z,2.73
2018-09-10T00:44:07.119Z,2.90
2018-09-10T00:46:35.905Z,2.60
2018-09-10T00:49:04.702Z,3.03
2018-09-10T00:51:33.646Z,2.97
2018-09-10T00:54:02.450Z,3.43
2018-09-10T00:56:31.214Z,3.50
2018-09-10T00:58:59.994Z,3.37
2018-09-10T01:01:28.762Z,3.30
2018-09-10T01:03:57.554Z,3.73
2018-09-10T01:06:26.338Z,3.27
2018-09-10T01:08:55.092Z,3.23
2018-09-10T01:11:24.110Z,3.40
2018-09-10T01:13:52.879Z,3.50
2018-09-10T01:16:21.918Z,3.40
2018-09-10T01:18:50.686Z,2.87
2018-09-10T01:21:19.454Z,3.10
2018-09-10T01:23:48.225Z,3.00
2018-09-10T01:26:17.043Z,3.10
2018-09-10T01:28:45.806Z,2.90
2018-09-10T01:31:14.578Z,3.00
2018-09-10T01:33:48.694Z,3.33
2018-09-10T01:36:17.441Z,2.77
2018-09-10T01:38:46.214Z,3.27
2018-09-10T01:41:14.972Z,3.20
2018-09-10T01:43:43.740Z,2.97
2018-09-10T01:46:12.486Z,3.10
2018-09-10T01:48:41.256Z,3.30
2018-09-10T01:51:10.005Z,3.73
2018-09-10T01:53:38.770Z,3.27
2018-09-10T01:56:07.598Z,2.90
2018-09-10T01:58:36.583Z,2.93
2018-09-10T02:01:05.456Z,3.60
2018-09-10T02:03:34.223Z,3.90
2018-09-10T02:06:03.015Z,3.40
2018-09-10T02:08:31.807Z,3.67
2018-09-10T02:11:00.826Z,3.23
2018-09-10T02:13:29.585Z,3.60
2018-09-10T02:15:58.394Z,3.63
2018-09-10T02:18:27.238Z,3.33
2018-09-10T02:20:56.000Z,3.97
2018-09-10T02:23:24.758Z,3.80
2018-09-10T02:25:53.555Z,3.77
2018-09-10T02:28:22.366Z,3.50
2018-09-10T02:30:51.570Z,3.43
2018-09-10T02:33:20.339Z,3.70
2018-09-10T02:35:49.158Z,3.57
2018-09-10T02:38:17.930Z,3.30
2018-09-10T02:40:46.699Z,3.53
2018-09-10T02:43:15.478Z,3.53
2018-09-10T02:45:44.254Z,3.33
2018-09-10T02:48:13.037Z,3.87
2018-09-10T02:50:41.802Z,3.40
2018-09-10T02:53:10.564Z,3.27
2018-09-10T02:55:39.663Z,3.50
2018-09-10T02:58:08.496Z,3.60
2018-09-10T03:00:37.318Z,3.97
2018-09-10T03:03:06.154Z,4.13
2018-09-10T03:05:35.002Z,3.93
2018-09-10T03:08:03.793Z,3.70
2018-09-10T03:10:32.544Z,3.90
2018-09-10T03:13:01.306Z,3.60
2018-09-10T03:15:30.466Z,3.83
2018-09-10T03:17:59.236Z,3.90
2018-09-10T03:20:28.006Z,3.50
2018-09-10T03:22:56.782Z,3.30
2018-09-10T03:25:25.533Z,3.83
2018-09-10T03:27:54.299Z,3.40
2018-09-10T03:30:23.068Z,3.70
2018-09-10T03:32:51.850Z,3.60
2018-09-10T03:35:20.621Z,3.80
2018-09-10T03:37:49.420Z,3.37
2018-09-10T03:40:18.194Z,3.80
2018-09-10T03:42:46.938Z,3.33
2018-09-10T03:45:15.718Z,3.67
2018-09-10T03:47:44.493Z,3.20
2018-09-10T03:50:13.307Z,3.50
2018-09-10T03:52:42.171Z,3.50
2018-09-10T03:55:11.096Z,3.70
2018-09-10T03:57:39.862Z,3.37
2018-09-10T04:00:08.671Z,3.57
2018-09-10T04:02:37.843Z,2.90
2018-09-10T04:05:07.219Z,3.40
2018-09-10T04:07:35.974Z,3.53
2018-09-10T04:10:04.826Z,3.47
2018-09-10T04:12:33.591Z,3.23
2018-09-10T04:15:02.430Z,3.60
2018-09-10T04:17:31.197Z,3.90
2018-09-10T04:20:07.117Z,3.43
2018-09-10T04:22:35.906Z,3.30
2018-09-10T04:25:04.949Z,3.30
2018-09-10T04:27:33.953Z,3.30
2018-09-10T04:30:02.739Z,3.40
2018-09-10T04:32:31.519Z,3.70
2018-09-10T04:35:00.286Z,3.30
2018-09-10T04:37:29.119Z,3.30
2018-09-10T04:39:57.894Z,3.37
2018-09-10T04:42:26.671Z,3.70
2018-09-10T04:44:55.426Z,3.70
2018-09-10T04:47:24.443Z,3.30
2018-09-10T04:49:53.299Z,3.10
2018-09-10T04:52:21.995Z,2.80
2018-09-10T04:54:50.778Z,2.97
2018-09-10T04:57:19.563Z,3.27
2018-09-10T04:59:48.328Z,2.90
2018-09-10T05:02:17.530Z,2.80
2018-09-10T05:04:46.319Z,3.00
2018-09-10T05:07:15.407Z,3.10
2018-09-10T05:09:44.225Z,2.73
2018-09-10T05:12:13.032Z,2.80
2018-09-10T05:14:41.819Z,2.43
2018-09-10T05:17:10.611Z,2.43
2018-09-10T05:19:39.409Z,2.00
2018-09-10T05:22:08.421Z,2.23
2018-09-10T05:24:37.142Z,2.10
2018-09-10T05:27:05.910Z,2.20
2018-09-10T05:29:34.700Z,2.20
2018-09-10T05:32:03.490Z,2.10
2018-09-10T05:34:32.275Z,2.00
2018-09-10T05:37:01.062Z,2.00
2018-09-10T05:39:29.842Z,2.17
2018-09-10T05:41:58.634Z,2.53
2018-09-10T05:44:27.476Z,1.90
2018-09-10T05:46:56.251Z,2.17
2018-09-10T05:49:25.006Z,1.80
2018-09-10T05:51:53.771Z,2.13
2018-09-10T05:54:22.549Z,1.80
2018-09-10T05:56:51.304Z,1.73
2018-09-10T05:59:20.194Z,1.87
2018-09-10T06:01:49.018Z,1.90
2018-09-10T06:04:17.814Z,2.37
2018-09-10T06:06:46.598Z,2.20
2018-09-10T06:09:15.360Z,1.93
2018-09-10T06:11:44.134Z,1.90
2018-09-10T06:14:12.931Z,1.93
2018-09-10T06:16:41.727Z,1.80
2018-09-10T06:19:10.486Z,1.97
2018-09-10T06:21:39.254Z,2.10
2018-09-10T06:24:08.034Z,1.53
2018-09-10T06:26:36.809Z,1.80
2018-09-10T06:29:05.610Z,2.20
2018-09-10T06:31:34.379Z,1.60
2018-09-10T06:34:03.230Z,1.80
2018-09-10T06:36:32.111Z,1.80
2018-09-10T06:39:00.866Z,1.93
2018-09-10T06:41:29.634Z,1.50
2018-09-10T06:43:58.496Z,1.87
2018-09-10T06:46:27.270Z,1.90
2018-09-10T06:48:56.072Z,1.80
2018-09-10T06:51:24.847Z,1.80
2018-09-10T06:53:53.610Z,1.70
2018-09-10T06:56:22.380Z,1.90
2018-09-10T06:58:51.194Z,1.70
2018-09-10T07:01:19.994Z,1.80
2018-09-10T07:03:48.804Z,1.83
2018-09-10T07:06:17.572Z,1.70
2018-09-10T07:08:46.391Z,1.60
2018-09-10T07:11:15.187Z,1.80
2018-09-10T07:13:43.994Z,1.37
2018-09-10T07:16:12.795Z,1.47
2018-09-10T07:18:41.661Z,1.50
2018-09-10T07:21:10.406Z,1.83
2018-09-10T07:23:39.179Z,1.53
2018-09-10T07:26:07.954Z,1.60
2018-09-10T07:28:36.843Z,1.40
2018-09-10T07:31:05.651Z,1.30
2018-09-10T07:33:34.447Z,1.60
2018-09-10T07:36:03.221Z,1.87
2018-09-10T07:38:32.098Z,1.60
2018-09-10T07:41:00.885Z,1.37
2018-09-10T07:43:29.736Z,1.63
2018-09-10T07:45:58.534Z,1.60
2018-09-10T07:48:27.452Z,1.77
2018-09-10T07:50:56.236Z,1.63
2018-09-10T07:53:25.003Z,1.67
2018-09-10T07:55:53.816Z,1.13
2018-09-10T07:58:22.619Z,1.70
2018-09-10T08:00:51.501Z,1.53
2018-09-10T08:03:21.167Z,1.50
2018-09-10T08:05:49.992Z,1.33
2018-09-10T08:08:18.774Z,1.70
2018-09-10T08:10:47.551Z,1.33
2018-09-10T08:13:16.322Z,1.20
2018-09-10T08:15:45.107Z,1.70
2018-09-10T08:18:13.893Z,1.67
2018-09-10T08:20:42.674Z,1.27
2018-09-10T08:23:11.458Z,1.90
2018-09-10T08:25:40.242Z,1.43
2018-09-10T08:28:09.044Z,1.40
2018-09-10T08:30:38.168Z,1.53
2018-09-10T08:33:07.031Z,1.47
2018-09-10T08:35:35.834Z,1.40
2018-09-10T08:38:04.599Z,1.50
2018-09-10T08:40:33.407Z,1.60
2018-09-10T08:43:02.182Z,1.40
2018-09-10T08:45:30.939Z,1.57
2018-09-10T08:47:59.882Z,1.80
2018-09-10T08:50:28.666Z,1.80
2018-09-10T08:52:57.450Z,1.40
2018-09-10T08:55:26.327Z,2.00
2018-09-10T08:57:55.002Z,1.40
2018-09-10T09:00:23.911Z,1.50
2018-09-10T09:02:52.754Z,1.63
2018-09-10T09:05:21.598Z,1.40
2018-09-10T09:07:50.464Z,1.40
2018-09-10T09:10:19.234Z,1.50
2018-09-10T09:12:48.011Z,1.50
2018-09-10T09:15:16.779Z,1.30
2018-09-10T09:17:45.590Z,1.47
2018-09-10T09:20:14.346Z,1.80
2018-09-10T09:22:43.119Z,1.77
2018-09-10T09:25:11.878Z,1.80
2018-09-10T09:27:40.699Z,1.80
2018-09-10T09:30:09.498Z,2.07
2018-09-10T09:32:38.308Z,1.90
2018-09-10T09:35:07.122Z,2.17
2018-09-10T09:37:41.106Z,1.50
2018-09-10T09:40:15.030Z,1.60
2018-09-10T09:42:48.954Z,2.07
2018-09-10T09:45:23.059Z,1.97
2018-09-10T09:47:51.932Z,1.90
2018-09-10T09:50:20.706Z,1.80
2018-09-10T09:52:49.466Z,1.57
2018-09-10T09:55:18.323Z,1.83
2018-09-10T09:57:47.116Z,2.20
2018-09-10T10:00:20.069Z,1.93
2018-09-10T10:02:54.386Z,1.97
2018-09-10T10:05:23.260Z,1.90
2018-09-10T10:07:52.057Z,1.50
2018-09-10T10:10:20.994Z,1.80
2018-09-10T10:12:49.733Z,1.90
2018-09-10T10:15:18.545Z,1.80
2018-09-10T10:17:47.306Z,1.60
2018-09-10T10:20:16.079Z,1.73
2018-09-10T10:22:44.840Z,2.20
2018-09-10T10:25:13.627Z,2.20
2018-09-10T10:27:42.458Z,1.80
2018-09-10T10:30:11.391Z,1.80
2018-09-10T10:32:40.163Z,1.97
2018-09-10T10:35:08.938Z,1.80
2018-09-10T10:37:37.974Z,1.90
2018-09-10T10:40:06.908Z,1.83
2018-09-10T10:42:35.686Z,1.87
2018-09-10T10:45:04.535Z,1.70
2018-09-10T10:47:33.365Z,1.83
2018-09-10T10:50:02.220Z,2.10
2018-09-10T10:52:31.315Z,2.03
2018-09-10T10:55:00.565Z,2.13
2018-09-10T10:57:29.381Z,1.80
2018-09-10T10:59:58.291Z,1.80
2018-09-10T11:02:27.107Z,1.40
2018-09-10T11:04:55.953Z,1.60
2018-09-10T11:07:24.719Z,1.87
2018-09-10T11:09:53.495Z,1.70
2018-09-10T11:12:22.309Z,1.80
2018-09-10T11:14:51.138Z,2.17
2018-09-10T11:17:19.915Z,1.90
2018-09-10T11:19:48.768Z,1.80
2018-09-10T11:22:17.609Z,2.43
2018-09-10T11:24:46.374Z,1.70
2018-09-10T11:27:15.147Z,1.93
2018-09-10T11:29:43.906Z,1.83
2018-09-10T11:32:12.734Z,1.87
2018-09-10T11:34:41.559Z,1.83
2018-09-10T11:37:10.294Z,1.90
2018-09-10T11:39:39.210Z,2.00
2018-09-10T11:42:08.022Z,1.97
2018-09-10T11:44:36.823Z,1.97
2018-09-10T11:47:06.190Z,1.90
2018-09-10T11:49:34.946Z,2.00
2018-09-10T11:52:04.007Z,2.33
2018-09-10T11:54:32.798Z,2.13
2018-09-10T11:57:01.610Z,2.17
2018-09-10T11:59:30.427Z,2.27
2018-09-10T12:01:59.319Z,1.97
2018-09-10T12:04:28.115Z,2.10
2018-09-10T12:06:56.874Z,2.60
2018-09-10T12:09:25.652Z,1.90
2018-09-10T12:11:54.439Z,2.03
2018-09-10T12:14:23.214Z,1.73
2018-09-10T12:16:51.987Z,2.20
2018-09-10T12:19:20.776Z,2.03
2018-09-10T12:21:49.630Z,1.70
2018-09-10T12:24:18.394Z,2.03
2018-09-10T12:26:47.174Z,1.47
2018-09-10T12:29:16.039Z,1.93
2018-09-10T12:31:44.806Z,2.00
2018-09-10T12:34:13.590Z,2.23
2018-09-10T12:36:42.327Z,2.17
2018-09-10T12:39:11.865Z,2.13
2018-09-10T12:41:41.063Z,2.30
2018-09-10T12:44:09.791Z,1.97
2018-09-10T12:46:38.558Z,2.30
2018-09-10T12:49:07.268Z,2.23
2018-09-10T12:51:36.012Z,2.20
2018-09-10T12:54:04.820Z,2.60
2018-09-10T12:56:33.582Z,2.50
2018-09-10T12:59:02.343Z,2.07
2018-09-10T13:01:31.056Z,2.03
2018-09-10T13:03:59.835Z,2.43
2018-09-10T13:06:28.609Z,2.30
2018-09-10T13:08:57.319Z,2.40
2018-09-10T13:11:26.108Z,2.70
2018-09-10T13:13:54.851Z,2.37
2018-09-10T13:16:23.667Z,2.47
2018-09-10T13:18:52.335Z,2.30
2018-09-10T13:21:21.107Z,2.80
2018-09-10T13:23:49.832Z,2.83
2018-09-10T13:26:18.815Z,2.50
2018-09-10T13:28:47.568Z,1.87
2018-09-10T13:31:16.344Z,2.10
2018-09-10T13:33:45.071Z,2.17
2018-09-10T13:36:14.143Z,2.40
2018-09-10T13:38:43.227Z,2.60
2018-09-10T13:41:12.023Z,2.50
2018-09-10T13:43:40.748Z,2.63
2018-09-10T13:46:09.540Z,2.47
2018-09-10T13:48:38.360Z,2.23
2018-09-10T13:51:07.111Z,3.00
2018-09-10T13:53:36.244Z,2.43
2018-09-10T13:56:05.032Z,2.53
2018-09-10T13:58:33.784Z,2.70
2018-09-10T14:01:02.540Z,2.50
2018-09-10T14:03:31.556Z,2.47
2018-09-10T14:06:00.388Z,2.70
2018-09-10T14:08:29.157Z,2.73
2018-09-10T14:10:57.896Z,2.40
2018-09-10T14:13:26.627Z,2.80
2018-09-10T14:15:55.368Z,3.07
2018-09-10T14:18:24.143Z,2.70
2018-09-10T14:20:52.868Z,2.83
2018-09-10T14:23:21.596Z,2.83
2018-09-10T14:25:50.417Z,3.63
2018-09-10T14:28:19.187Z,2.90
2018-09-10T14:30:47.996Z,3.63
2018-09-10T14:33:16.751Z,3.27
2018-09-10T14:35:45.514Z,3.37
2018-09-10T14:38:14.260Z,3.20
2018-09-10T14:40:43.012Z,3.13
2018-09-10T14:43:11.765Z,3.27
2018-09-10T14:45:40.504Z,3.20
2018-09-10T14:48:09.216Z,3.37
2018-09-10T14:50:38.026Z,3.60
2018-09-10T14:53:07.051Z,2.90
2018-09-10T14:55:36.112Z,3.63
2018-09-10T14:58:04.930Z,3.70
2018-09-10T15:00:33.698Z,3.70
2018-09-10T15:03:02.411Z,3.60
2018-09-10T15:05:31.171Z,2.87
2018-09-10T15:08:00.171Z,3.23
2018-09-10T15:10:29.216Z,4.00
2018-09-10T15:12:57.951Z,3.53
2018-09-10T15:15:26.695Z,3.30
2018-09-10T15:17:55.398Z,2.83
2018-09-10T15:20:25.008Z,3.27
2018-09-10T15:22:54.043Z,3.00
2018-09-10T15:25:22.789Z,2.83
2018-09-10T15:27:51.536Z,3.30
2018-09-10T15:30:20.292Z,3.27
2018-09-10T15:32:49.028Z,3.20
2018-09-10T15:35:17.767Z,3.17
2018-09-10T15:37:46.756Z,3.17
2018-09-10T15:40:15.496Z,3.53
2018-09-10T15:42:44.228Z,3.43
2018-09-10T15:45:13.037Z,3.50
2018-09-10T15:47:41.735Z,3.50
2018-09-10T15:50:10.487Z,3.53
2018-09-10T15:52:39.571Z,3.27
2018-09-10T15:55:08.680Z,3.70
2018-09-10T15:57:37.684Z,3.87
2018-09-10T16:00:06.802Z,3.83
2018-09-10T16:02:35.737Z,3.30
2018-09-10T16:05:04.876Z,4.30
2018-09-10T16:07:33.588Z,4.00
2018-09-10T16:10:02.636Z,3.77
2018-09-10T16:12:31.964Z,3.30
2018-09-10T16:15:01.020Z,3.40
2018-09-10T16:17:30.122Z,3.57
2018-09-10T16:19:58.991Z,3.83
2018-09-10T16:22:28.104Z,3.70
2018-09-10T16:24:56.841Z,3.77
2018-09-10T16:27:25.849Z,4.37
2018-09-10T16:29:54.784Z,3.90
2018-09-10T16:32:23.852Z,4.00
2018-09-10T16:34:53.023Z,3.60
2018-09-10T16:37:22.169Z,3.97
2018-09-10T16:39:51.263Z,3.73
2018-09-10T16:42:20.360Z,4.57
2018-09-10T16:44:49.347Z,4.00
2018-09-10T16:47:18.675Z,4.00
2018-09-10T16:49:47.659Z,4.43
2018-09-10T16:52:16.732Z,4.27
2018-09-10T16:54:46.048Z,4.23
2018-09-10T16:57:14.669Z,3.70
2018-09-10T16:59:43.597Z,4.27
2018-09-10T17:02:12.583Z,4.07
2018-09-10T17:04:41.476Z,3.87
2018-09-10T17:07:10.251Z,3.83
2018-09-10T17:09:39.361Z,3.80
2018-09-10T17:12:08.666Z,4.00
2018-09-10T17:14:37.912Z,4.17
2018-09-10T17:17:07.824Z,4.00
2018-09-10T17:19:37.124Z,4.57
2018-09-10T17:22:06.549Z,3.83
2018-09-10T17:24:35.713Z,4.13
2018-09-10T17:27:05.163Z,4.03
2018-09-10T17:29:34.264Z,3.53
2018-09-10T17:32:03.668Z,4.40
2018-09-10T17:34:32.756Z,3.93
2018-09-10T17:37:01.740Z,4.43
2018-09-10T17:39:30.847Z,4.23
2018-09-10T17:41:59.943Z,4.10
2018-09-10T17:44:29.045Z,4.90
2018-09-10T17:46:58.244Z,4.97
2018-09-10T17:49:27.223Z,4.87
2018-09-10T17:51:56.284Z,4.77
2018-09-10T17:54:25.415Z,4.60
2018-09-10T17:56:54.407Z,4.60
2018-09-10T17:59:23.523Z,4.33
2018-09-10T18:01:52.856Z,4.83
2018-09-10T18:04:21.929Z,4.00
2018-09-10T18:06:50.996Z,4.23
2018-09-10T18:09:20.110Z,4.47
2018-09-10T18:11:49.084Z,4.47
2018-09-10T18:14:18.415Z,4.87
2018-09-10T18:16:47.676Z,4.40
2018-09-10T18:19:17.076Z,4.60
2018-09-10T18:21:46.456Z,4.90
2018-09-10T18:24:15.456Z,4.73
2018-09-10T18:26:44.656Z,4.73
2018-09-10T18:29:13.652Z,4.33
2018-09-10T18:31:42.859Z,4.90
2018-09-10T18:34:11.865Z,4.23
2018-09-10T18:36:41.232Z,4.37
2018-09-10T18:39:11.228Z,4.50
2018-09-10T18:41:40.365Z,5.10
2018-09-10T18:44:09.443Z,4.70
2018-09-10T18:46:38.752Z,4.23
2018-09-10T18:49:08.111Z,4.37
2018-09-10T18:51:37.151Z,4.50
2018-09-10T18:54:05.932Z,4.53
2018-09-10T18:56:35.905Z,4.90
2018-09-10T18:59:04.717Z,4.80
2018-09-10T19:01:33.843Z,4.60
2018-09-10T19:04:03.435Z,4.67
2018-09-10T19:06:32.428Z,4.67
2018-09-10T19:09:01.629Z,4.73
2018-09-10T19:11:30.724Z,4.67
2018-09-10T19:14:00.313Z,5.10
2018-09-10T19:16:29.877Z,4.43
2018-09-10T19:18:59.186Z,5.87
2018-09-10T19:21:28.641Z,5.60
2018-09-10T19:23:58.392Z,5.27
2018-09-10T19:26:27.576Z,5.30
2018-09-10T19:28:56.542Z,4.40
2018-09-10T19:31:25.582Z,5.00
2018-09-10T19:33:54.640Z,5.23
2018-09-10T19:36:23.867Z,5.60
2018-09-10T19:38:52.911Z,4.80
2018-09-10T19:41:21.660Z,5.23
2018-09-10T19:43:50.396Z,4.70
2018-09-10T19:46:19.593Z,5.50
2018-09-10T19:48:48.368Z,4.67
2018-09-10T19:51:17.250Z,5.10
2018-09-10T19:53:45.984Z,5.73
2018-09-10T19:56:14.695Z,5.20
2018-09-10T19:58:43.460Z,5.10
2018-09-10T20:01:12.284Z,4.80
2018-09-10T20:03:41.015Z,5.20
2018-09-10T20:06:10.100Z,5.17
2018-09-10T20:08:38.884Z,5.20
2018-09-10T20:11:07.932Z,4.97
2018-09-10T20:13:36.708Z,5.40
2018-09-10T20:16:05.486Z,5.17
2018-09-10T20:18:34.365Z,4.80
2018-09-10T20:21:03.236Z,5.10
2018-09-10T20:23:33.051Z,5.20
2018-09-10T20:26:05.172Z,5.30
2018-09-10T20:28:33.908Z,5.43
2018-09-10T20:31:03.088Z,5.03
2018-09-10T20:33:36.008Z,4.97
2018-09-10T20:36:04.784Z,5.07
2018-09-10T20:38:33.528Z,4.70
2018-09-10T20:41:02.264Z,4.87
2018-09-10T20:43:30.987Z,5.03
2018-09-10T20:45:59.723Z,4.40
2018-09-10T20:48:28.467Z,4.80
2018-09-10T20:50:57.212Z,4.70
2018-09-10T20:53:26.003Z,4.30
2018-09-10T20:55:54.739Z,4.20
2018-09-10T20:58:23.484Z,4.47
2018-09-10T21:00:52.528Z,4.80
2018-09-10T21:03:21.514Z,4.20
2018-09-10T21:05:50.243Z,3.67
2018-09-10T21:08:19.273Z,4.47
2018-09-10T21:10:48.028Z,4.67
2018-09-10T21:13:16.755Z,4.43
2018-09-10T21:15:45.471Z,4.47
2018-09-10T21:18:14.971Z,4.10
2018-09-10T21:20:43.720Z,4.60
2018-09-10T21:23:12.720Z,5.17
2018-09-10T21:25:41.822Z,4.60
2018-09-10T21:28:10.557Z,4.50
2018-09-10T21:30:39.351Z,4.83
2018-09-10T21:33:08.217Z,5.13
2018-09-10T21:35:36.968Z,4.37
2018-09-10T21:38:05.791Z,4.30
2018-09-10T21:40:34.556Z,4.40
2018-09-10T21:43:03.284Z,4.93
2018-09-10T21:45:32.023Z,4.10
2018-09-10T21:48:00.731Z,4.70
2018-09-10T21:50:29.471Z,4.43
2018-09-10T21:52:58.211Z,4.97
2018-09-10T21:55:26.952Z,4.93
2018-09-10T21:57:55.730Z,5.13
2018-09-10T22:00:24.524Z,5.40
2018-09-10T22:02:53.265Z,4.53
2018-09-10T22:05:22.011Z,4.20
2018-09-10T22:07:50.731Z,4.93
2018-09-10T22:10:19.487Z,4.73
2018-09-10T22:12:48.232Z,3.70
2018-09-10T22:15:17.548Z,4.10
2018-09-10T22:17:46.841Z,3.70
2018-09-10T22:20:15.963Z,3.30
2018-09-10T22:22:44.738Z,3.93
2018-09-10T22:25:13.487Z,3.00
2018-09-10T22:27:42.223Z,2.47
2018-09-10T22:30:10.967Z,2.50
2018-09-10T22:32:39.723Z,2.30
2018-09-10T22:35:08.471Z,2.10
2018-09-10T22:37:37.199Z,2.00
2018-09-10T22:40:06.131Z,1.70
2018-09-10T22:42:34.852Z,1.40
2018-09-10T22:45:03.606Z,1.67
2018-09-10T22:47:32.335Z,1.47
2018-09-10T22:50:01.051Z,1.23
2018-09-10T22:52:29.778Z,1.73
2018-09-10T22:54:59.143Z,1.70
2018-09-10T22:57:28.180Z,1.80
2018-09-10T22:59:56.955Z,1.80
2018-09-10T23:02:25.707Z,2.00
2018-09-10T23:04:54.448Z,1.67
2018-09-10T23:07:23.171Z,1.70
2018-09-10T23:09:52.021Z,2.30
2018-09-10T23:12:20.831Z,1.50
2018-09-10T23:14:49.599Z,2.00
2018-09-10T23:17:18.331Z,2.10
2018-09-10T23:19:47.079Z,1.83
2018-09-10T23:22:16.039Z,1.47
2018-09-10T23:24:44.895Z,1.77
2018-09-10T23:27:13.614Z,1.83
2018-09-10T23:29:42.355Z,1.70
2018-09-10T23:32:11.077Z,1.50
2018-09-10T23:34:39.855Z,1.80
2018-09-10T23:37:08.596Z,1.47
2018-09-10T23:39:37.340Z,1.73
2018-09-10T23:42:06.113Z,2.17
2018-09-10T23:44:34.827Z,1.20
2018-09-10T23:47:03.604Z,1.67
2018-09-10T23:49:32.324Z,1.27
2018-09-10T23:52:01.055Z,1.80
2018-09-10T23:54:29.783Z,2.13
2018-09-10T23:56:58.530Z,1.57
2018-09-10T23:59:27.259Z,1.83
